createdAt,value
2018-07-12T00:03:41.472Z,0.10
2018-07-12T00:07:43.936Z,0.10
2018-07-12T00:11:46.148Z,1.23
2018-07-12T00:15:48.374Z,0.00
2018-07-12T00:19:50.560Z,0.33
2018-07-12T00:23:52.757Z,0.37
2018-07-12T00:27:54.956Z,0.00
2018-07-12T00:31:57.144Z,0.10
2018-07-12T00:35:59.348Z,1.97
2018-07-12T00:40:01.553Z,0.57
2018-07-12T00:44:03.758Z,0.33
2018-07-12T00:48:05.957Z,0.00
2018-07-12T00:52:08.412Z,0.00
2018-07-12T00:56:10.621Z,0.00
2018-07-12T01:00:12.809Z,0.00
2018-07-12T01:04:15.010Z,0.00
2018-07-12T01:08:17.204Z,0.00
2018-07-12T01:12:19.405Z,0.00
2018-07-12T01:16:21.622Z,0.00
2018-07-12T01:20:23.829Z,0.00
2018-07-12T01:24:26.031Z,0.00
2018-07-12T01:28:28.220Z,0.00
2018-07-12T01:32:30.415Z,0.00
2018-07-12T01:36:32.603Z,0.00
2018-07-12T01:40:34.800Z,0.00
2018-07-12T01:44:37.251Z,0.00
2018-07-12T01:48:39.458Z,0.00
2018-07-12T01:52:41.920Z,0.00
2018-07-12T01:56:44.128Z,0.00
2018-07-12T02:00:47.008Z,0.00
2018-07-12T02:04:49.209Z,0.00
2018-07-12T02:08:51.663Z,0.00
2018-07-12T02:12:53.862Z,0.00
2018-07-12T02:16:56.116Z,0.00
2018-07-12T02:20:58.237Z,0.00
2018-07-12T02:25:00.688Z,0.00
2018-07-12T02:29:02.888Z,0.10
2018-07-12T02:33:05.093Z,0.03
2018-07-12T02:37:07.306Z,0.00
2018-07-12T02:41:09.505Z,0.07
2018-07-12T02:45:11.708Z,0.00
2018-07-12T02:49:14.412Z,0.00
2018-07-12T02:53:16.604Z,0.00
2018-07-12T02:57:18.812Z,0.10
2018-07-12T03:01:21.013Z,0.00
2018-07-12T03:05:23.212Z,0.00
2018-07-12T03:09:25.409Z,0.00
2018-07-12T03:13:27.614Z,0.00
2018-07-12T03:17:29.814Z,0.17
2018-07-12T03:21:32.005Z,0.00
2018-07-12T03:25:34.202Z,0.00
2018-07-12T03:29:36.397Z,0.00
2018-07-12T03:33:39.085Z,0.00
2018-07-12T03:37:41.305Z,0.00
2018-07-12T03:41:43.503Z,0.10
2018-07-12T03:45:45.744Z,0.00
2018-07-12T03:49:48.195Z,0.00
2018-07-12T03:53:50.404Z,0.77
2018-07-12T03:57:52.876Z,0.00
2018-07-12T04:01:55.078Z,0.10
2018-07-12T04:05:57.289Z,1.40
2018-07-12T04:09:59.488Z,0.00
2018-07-12T04:14:01.672Z,0.00
2018-07-12T04:18:03.866Z,0.00
2018-07-12T04:22:06.050Z,0.00
2018-07-12T04:26:08.252Z,1.13
2018-07-12T04:30:10.711Z,0.10
2018-07-12T04:34:12.890Z,0.00
2018-07-12T04:38:15.114Z,0.10
2018-07-12T04:42:17.309Z,0.00
2018-07-12T04:46:19.506Z,0.57
2018-07-12T04:50:21.710Z,0.00
2018-07-12T04:54:24.196Z,2.13
2018-07-12T04:58:26.402Z,0.00
2018-07-12T05:02:28.593Z,0.00
2018-07-12T05:06:31.261Z,0.00
2018-07-12T05:10:33.457Z,0.00
2018-07-12T05:14:35.974Z,0.00
2018-07-12T05:18:38.157Z,0.00
2018-07-12T05:22:41.792Z,1.10
2018-07-12T05:26:43.992Z,2.80
2018-07-12T05:30:46.254Z,0.20
2018-07-12T05:34:48.844Z,0.10
2018-07-12T05:38:52.064Z,2.53
2018-07-12T05:42:55.303Z,1.13
2018-07-12T05:46:58.544Z,0.20
2018-07-12T05:51:01.773Z,1.03
2018-07-12T05:55:05.005Z,0.70
2018-07-12T05:59:07.964Z,8.03
2018-07-12T06:03:11.197Z,2.73
2018-07-12T06:07:15.801Z,1.10
2018-07-12T06:11:19.051Z,0.00
2018-07-12T06:15:22.015Z,1.80
2018-07-12T06:19:25.233Z,0.93
2018-07-12T06:23:28.460Z,1.07
2018-07-12T06:27:31.711Z,2.60
2018-07-12T06:31:34.953Z,0.00
2018-07-12T06:35:38.171Z,4.17
2018-07-12T06:39:41.118Z,0.30
2018-07-12T06:43:44.421Z,0.00
2018-07-12T06:47:47.632Z,0.00
2018-07-12T06:51:50.869Z,12.00
2018-07-12T06:55:54.555Z,16.77
2018-07-12T06:59:57.862Z,18.57
2018-07-12T07:04:01.086Z,18.97
2018-07-12T07:08:04.330Z,20.83
2018-07-12T07:12:07.742Z,21.53
2018-07-12T07:16:10.961Z,22.40
2018-07-12T07:20:14.238Z,20.17
2018-07-12T07:24:17.427Z,22.62
2018-07-12T07:28:20.388Z,24.98
2018-07-12T07:32:23.651Z,25.35
2018-07-12T07:36:26.609Z,23.75
2018-07-12T07:40:29.850Z,25.72
2018-07-12T07:44:33.065Z,25.05
2018-07-12T07:48:36.296Z,25.23
2018-07-12T07:52:39.530Z,28.23
2018-07-12T07:56:42.760Z,28.90
2018-07-12T08:00:45.994Z,30.52
2018-07-12T08:04:49.209Z,28.10
2018-07-12T08:08:52.455Z,27.42
2018-07-12T08:12:55.425Z,30.08
2018-07-12T08:16:58.673Z,28.45
2018-07-12T08:21:02.045Z,28.65
2018-07-12T08:25:05.317Z,28.87
2018-07-12T08:29:08.550Z,28.45
2018-07-12T08:33:11.784Z,29.12
2018-07-12T08:37:14.743Z,30.52
2018-07-12T08:41:17.990Z,28.83
2018-07-12T08:45:20.948Z,29.25
2018-07-12T08:49:24.177Z,29.75
2018-07-12T08:53:27.143Z,29.85
2018-07-12T08:57:30.368Z,30.65
2018-07-12T09:01:33.589Z,29.20
2018-07-12T09:05:36.551Z,30.52
2018-07-12T09:09:39.769Z,29.12
2018-07-12T09:13:43.004Z,28.75
2018-07-12T09:17:46.276Z,27.85
2018-07-12T09:21:49.545Z,29.45
2018-07-12T09:25:52.717Z,26.40
2018-07-12T09:29:55.937Z,25.80
2018-07-12T09:33:59.158Z,25.43
2018-07-12T09:38:02.388Z,25.12
2018-07-12T09:42:05.621Z,25.80
2018-07-12T09:46:08.592Z,24.65
2018-07-12T09:50:11.835Z,26.55
2018-07-12T09:54:15.058Z,27.22
2018-07-12T09:58:26.292Z,27.27
2018-07-12T10:02:34.860Z,23.27
2018-07-12T10:06:43.562Z,21.50
2018-07-12T10:11:52.158Z,20.57
2018-07-12T10:16:00.664Z,18.57
2018-07-12T10:20:04.657Z,18.62
2018-07-12T10:24:07.924Z,18.60
2018-07-12T10:28:11.161Z,17.07
2018-07-12T10:32:14.402Z,17.65
2018-07-12T10:36:17.625Z,16.48
2018-07-12T10:40:20.839Z,17.67
2018-07-12T10:44:24.104Z,16.73
2018-07-12T10:48:27.309Z,19.55
2018-07-12T10:52:30.542Z,15.43
2018-07-12T10:56:33.920Z,16.32
2018-07-12T11:00:36.876Z,17.52
2018-07-12T11:04:40.246Z,17.35
2018-07-12T11:08:43.384Z,15.20
2018-07-12T11:12:56.617Z,14.65
2018-07-12T11:16:59.583Z,16.37
2018-07-12T11:21:02.823Z,15.10
2018-07-12T11:25:07.237Z,16.25
2018-07-12T11:29:10.469Z,20.20
2018-07-12T11:33:50.206Z,21.40
2018-07-12T11:37:53.454Z,19.90
2018-07-12T11:41:56.678Z,18.50
2018-07-12T11:46:01.375Z,20.90
2018-07-12T11:50:04.674Z,21.33
2018-07-12T11:54:07.929Z,18.85
2018-07-12T11:58:11.176Z,20.27
2018-07-12T12:02:14.394Z,19.35
2018-07-12T12:06:17.634Z,19.27
2018-07-12T12:10:20.874Z,17.92
2018-07-12T12:14:24.104Z,19.23
2018-07-12T12:18:27.353Z,19.00
2018-07-12T12:22:30.590Z,19.82
2018-07-12T12:26:33.845Z,19.27
2018-07-12T12:30:36.799Z,14.55
2018-07-12T12:34:40.030Z,13.98
2018-07-12T12:38:43.261Z,13.72
2018-07-12T12:42:46.493Z,13.78
2018-07-12T12:46:49.727Z,15.58
2018-07-12T12:50:52.976Z,17.12
2018-07-12T12:54:56.189Z,16.55
2018-07-12T12:58:59.417Z,14.80
2018-07-12T13:03:02.629Z,13.62
2018-07-12T13:07:05.883Z,13.90
2018-07-12T13:11:09.114Z,13.18
2018-07-12T13:15:12.337Z,14.68
2018-07-12T13:19:15.565Z,14.40
2018-07-12T13:23:18.913Z,14.87
2018-07-12T13:27:22.148Z,15.50
2018-07-12T13:31:25.378Z,15.23
2018-07-12T13:35:28.637Z,13.85
2018-07-12T13:39:31.862Z,13.50
2018-07-12T13:43:35.093Z,15.30
2018-07-12T13:47:38.323Z,13.90
2018-07-12T13:51:41.549Z,12.30
2018-07-12T13:55:44.772Z,12.40
2018-07-12T13:59:48.002Z,10.88
2018-07-12T14:03:51.230Z,11.30
2018-07-12T14:07:54.462Z,11.63
2018-07-12T14:11:57.692Z,12.13
2018-07-12T14:16:00.916Z,11.45
2018-07-12T14:20:04.176Z,9.65
2018-07-12T14:24:07.432Z,10.85
2018-07-12T14:28:10.661Z,9.68
2018-07-12T14:32:13.888Z,10.23
2018-07-12T14:36:17.183Z,9.10
2018-07-12T14:40:20.154Z,9.08
2018-07-12T14:44:23.389Z,8.13
2018-07-12T14:48:26.348Z,8.75
2018-07-12T14:52:29.575Z,8.05
2018-07-12T14:56:32.794Z,9.40
2018-07-12T15:00:35.752Z,9.28
2018-07-12T15:04:38.982Z,8.90
2018-07-12T15:08:42.257Z,8.63
2018-07-12T15:12:45.467Z,7.50
2018-07-12T15:16:48.709Z,6.30
2018-07-12T15:20:51.934Z,5.80
2018-07-12T15:24:55.153Z,5.62
2018-07-12T15:28:58.378Z,4.17
2018-07-12T15:33:01.598Z,5.08
2018-07-12T15:37:04.864Z,4.78
2018-07-12T15:41:08.477Z,4.35
2018-07-12T15:45:11.786Z,4.20
2018-07-12T15:49:15.005Z,4.08
2018-07-12T15:53:18.231Z,4.30
2018-07-12T15:57:21.464Z,4.17
2018-07-12T16:01:24.673Z,4.10
2018-07-12T16:05:27.973Z,4.00
2018-07-12T16:09:30.917Z,4.10
2018-07-12T16:13:34.182Z,4.50
2018-07-12T16:17:37.386Z,4.33
2018-07-12T16:21:40.624Z,4.35
2018-07-12T16:25:43.848Z,4.35
2018-07-12T16:29:47.117Z,4.30
2018-07-12T16:33:50.317Z,3.72
2018-07-12T16:37:53.543Z,4.10
2018-07-12T16:41:56.843Z,3.35
2018-07-12T16:46:00.028Z,3.50
2018-07-12T16:50:03.261Z,3.72
2018-07-12T16:54:06.503Z,3.42
2018-07-12T16:58:09.459Z,3.80
2018-07-12T17:02:12.719Z,3.62
2018-07-12T17:06:15.673Z,3.72
2018-07-12T17:10:18.906Z,3.90
2018-07-12T17:14:22.219Z,4.37
2018-07-12T17:18:25.451Z,3.98
2018-07-12T17:22:28.668Z,3.72
2018-07-12T17:26:31.892Z,3.98
2018-07-12T17:30:35.144Z,3.47
2018-07-12T17:34:38.099Z,3.77
2018-07-12T17:38:41.331Z,3.40
2018-07-12T17:42:44.546Z,3.62
2018-07-12T17:46:47.496Z,4.50
2018-07-12T17:50:50.729Z,4.35
2018-07-12T17:54:53.961Z,3.60
2018-07-12T17:58:57.197Z,4.20
2018-07-12T18:03:00.410Z,3.55
2018-07-12T18:07:03.714Z,3.42
2018-07-12T18:11:06.941Z,3.75
2018-07-12T18:15:10.174Z,3.95
2018-07-12T18:19:13.395Z,3.27
2018-07-12T18:23:16.840Z,3.50
2018-07-12T18:27:20.064Z,3.37
2018-07-12T18:31:23.305Z,3.37
2018-07-12T18:35:26.535Z,3.20
2018-07-12T18:39:29.752Z,3.20
2018-07-12T18:43:33.105Z,3.80
2018-07-12T18:47:36.265Z,4.65
2018-07-12T18:51:39.552Z,3.77
2018-07-12T18:55:42.864Z,3.33
2018-07-12T18:59:45.777Z,3.55
2018-07-12T19:03:48.997Z,3.22
2018-07-12T19:07:53.309Z,3.42
2018-07-12T19:11:56.533Z,3.50
2018-07-12T19:15:59.765Z,3.60
2018-07-12T19:20:03.014Z,3.27
2018-07-12T19:24:06.345Z,3.35
2018-07-12T19:28:09.581Z,3.40
2018-07-12T19:32:12.808Z,3.65
2018-07-12T19:36:16.073Z,3.77
2018-07-12T19:40:19.048Z,3.77
2018-07-12T19:44:22.269Z,3.70
2018-07-12T19:48:25.498Z,3.83
2018-07-12T19:52:28.724Z,4.80
2018-07-12T19:56:31.977Z,3.80
2018-07-12T20:00:35.267Z,3.77
2018-07-12T20:04:38.513Z,3.58
2018-07-12T20:08:41.456Z,3.85
2018-07-12T20:12:44.677Z,3.65
2018-07-12T20:16:47.922Z,3.47
2018-07-12T20:20:51.152Z,3.80
2018-07-12T20:24:54.425Z,3.30
2018-07-12T20:28:57.648Z,2.95
2018-07-12T20:33:00.866Z,3.37
2018-07-12T20:37:04.110Z,2.92
2018-07-12T20:41:07.509Z,3.25
2018-07-12T20:45:10.756Z,2.83
2018-07-12T20:49:13.999Z,3.25
2018-07-12T20:53:17.233Z,3.33
2018-07-12T20:57:20.463Z,3.15
2018-07-12T21:01:23.720Z,3.00
2018-07-12T21:05:26.961Z,3.58
2018-07-12T21:09:29.908Z,3.45
2018-07-12T21:13:33.206Z,3.70
2018-07-12T21:17:36.422Z,3.67
2018-07-12T21:21:39.649Z,3.25
2018-07-12T21:25:42.870Z,3.40
2018-07-12T21:29:46.081Z,3.27
2018-07-12T21:33:49.035Z,3.42
2018-07-12T21:37:52.256Z,3.95
2018-07-12T21:41:55.518Z,3.72
2018-07-12T21:45:58.801Z,3.87
2018-07-12T21:50:02.025Z,3.55
2018-07-12T21:54:05.305Z,4.47
2018-07-12T21:58:08.268Z,4.60
2018-07-12T22:02:11.486Z,4.40
2018-07-12T22:06:15.996Z,4.80
2018-07-12T22:10:19.218Z,4.40
2018-07-12T22:14:22.455Z,4.67
2018-07-12T22:18:25.694Z,4.30
2018-07-12T22:22:28.917Z,4.17
2018-07-12T22:26:32.169Z,4.70
2018-07-12T22:30:36.443Z,5.50
2018-07-12T22:34:39.351Z,4.70
2018-07-12T22:38:42.584Z,4.90
2018-07-12T22:42:45.554Z,5.03
2018-07-12T22:46:48.774Z,4.77
2018-07-12T22:50:52.001Z,5.53
2018-07-12T22:54:54.956Z,5.50
2018-07-12T22:58:58.181Z,5.47
2018-07-12T23:03:01.410Z,5.63
2018-07-12T23:07:04.378Z,5.10
2018-07-12T23:11:07.670Z,5.80
2018-07-12T23:15:10.624Z,5.30
2018-07-12T23:19:13.841Z,5.90
2018-07-12T23:23:17.944Z,5.53
2018-07-12T23:27:21.166Z,5.67
2018-07-12T23:31:24.390Z,5.97
2018-07-12T23:35:27.604Z,6.23
2018-07-12T23:39:30.841Z,5.70
2018-07-12T23:43:33.824Z,5.57
2018-07-12T23:47:37.060Z,5.87
2018-07-12T23:51:40.302Z,5.73
2018-07-12T23:55:43.516Z,5.90
2018-07-12T23:59:46.738Z,6.33
